Time;durP1;ratioP1;P1;durP2;ratioP2;P2;SDS_P1;SDS_P2;PMS_P1;PMS_P2;Temp;Humidity;BMP_temperature;BMP_pressure;BME280_temperature;BME280_humidity;BME280_pressure;Samples;Min_cycle;Max_cycle;Signal;HPM_P1;HPM_P2
2020/12/26 00:02:49;;;;;;;3.30;2.13;;;;;;;0.28;87.71;100254.91;2005798;81;20208;-82
2020/12/26 00:05:51;;;;;;;4.23;2.19;;;;;;;0.27;87.82;100248.06;2004370;81;20228;-81
2020/12/26 00:08:55;;;;;;;5.21;2.42;;;;;;;0.26;87.87;100254.84;2004269;81;20224;-82
2020/12/26 00:11:57;;;;;;;5.23;2.84;;;;;;;0.29;88.11;100254.09;2007617;81;20174;-81
2020/12/26 00:15:03;;;;;;;3.74;2.03;;;;;;;0.28;87.92;100257.47;2007221;81;20186;-81
2020/12/26 00:18:05;;;;;;;3.72;2.16;;;;;;;0.27;88.05;100246.38;2004777;81;20353;-82
2020/12/26 00:21:13;;;;;;;2.59;1.83;;;;;;;0.29;88.09;100239.66;2004936;81;20175;-81
2020/12/26 00:24:15;;;;;;;3.23;1.93;;;;;;;0.30;88.13;100232.88;2004912;81;20333;-81
2020/12/26 00:27:17;;;;;;;3.38;1.97;;;;;;;0.29;88.07;100233.69;2006171;81;20264;-82
2020/12/26 00:30:23;;;;;;;4.50;1.71;;;;;;;0.23;87.75;100230.81;2004748;80;20193;-81
2020/12/26 00:33:29;;;;;;;2.61;1.68;;;;;;;0.14;87.36;100227.78;2049862;70;20528;-81
2020/12/26 00:36:32;;;;;;;4.18;1.48;;;;;;;0.09;87.00;100237.78;2005721;81;20258;-82
2020/12/26 00:39:33;;;;;;;2.91;1.58;;;;;;;0.05;86.66;100240.13;2004295;81;20190;-82
2020/12/26 00:42:38;;;;;;;2.53;1.34;;;;;;;0.01;86.43;100238.22;2004361;81;20194;-82
2020/12/26 00:45:40;;;;;;;4.49;1.73;;;;;;;-0.04;86.25;100248.16;2004118;81;20194;-82
2020/12/26 00:48:42;;;;;;;4.17;1.70;;;;;;;-0.19;86.07;100240.59;2003722;81;20621;-82
2020/12/26 00:51:48;;;;;;;4.87;1.70;;;;;;;-0.23;86.16;100238.69;2003539;81;20249;-82
2020/12/26 00:54:50;;;;;;;1.97;1.56;;;;;;;-0.25;86.03;100247.06;2003091;81;20305;-82
2020/12/26 00:57:52;;;;;;;2.11;1.68;;;;;;;-0.28;85.95;100260.53;2004340;81;20255;-81
2020/12/26 01:00:54;;;;;;;3.27;1.58;;;;;;;-0.32;85.88;100254.41;2003876;81;20228;-81
2020/12/26 01:03:55;;;;;;;4.16;1.53;;;;;;;-0.37;85.83;100262.59;2004498;81;20190;-82
2020/12/26 01:06:58;;;;;;;5.20;1.63;;;;;;;-0.39;85.89;100261.63;2004481;81;20248;-82
2020/12/26 01:10:00;;;;;;;4.83;2.03;;;;;;;-0.42;86.03;100259.81;2004465;81;20294;-82
2020/12/26 01:13:02;;;;;;;3.69;2.03;;;;;;;-0.46;85.98;100268.09;2004436;81;20209;-82
2020/12/26 01:16:04;;;;;;;4.78;1.59;;;;;;;-0.55;85.88;100270.13;2005445;80;20215;-82
2020/12/26 01:19:07;;;;;;;2.66;1.34;;;;;;;-0.61;85.92;100278.34;2006085;81;20567;-82
2020/12/26 01:22:13;;;;;;;2.63;1.41;;;;;;;-0.68;86.04;100277.94;2003963;81;20211;-82
2020/12/26 01:25:17;;;;;;;3.18;1.60;;;;;;;-0.71;86.05;100278.66;2006727;80;20194;-81
2020/12/26 01:28:19;;;;;;;3.22;1.77;;;;;;;-0.69;86.18;100284.72;2004114;81;20203;-83
2020/12/26 01:31:21;;;;;;;3.41;1.71;;;;;;;-0.68;86.39;100280.50;2005466;81;20365;-82
2020/12/26 01:34:24;;;;;;;5.26;1.71;;;;;;;-0.67;86.61;100288.22;2005247;81;20198;-83
2020/12/26 01:37:27;;;;;;;3.82;1.68;;;;;;;-0.61;86.70;100293.66;2006408;81;20178;-83
2020/12/26 01:40:29;;;;;;;4.78;1.98;;;;;;;-0.56;86.81;100300.66;2004932;81;20190;-81
2020/12/26 01:43:31;;;;;;;4.16;1.84;;;;;;;-0.53;86.92;100296.63;2007251;81;20197;-82
2020/12/26 01:46:33;;;;;;;2.99;1.67;;;;;;;-0.47;86.96;100309.72;2006377;81;20232;-83
2020/12/26 01:49:36;;;;;;;3.81;1.46;;;;;;;-0.42;87.01;100309.94;2006327;81;20388;-83
2020/12/26 01:52:38;;;;;;;3.38;1.56;;;;;;;-0.39;87.11;100317.75;2005346;81;20178;-83
2020/12/26 01:55:41;;;;;;;4.99;1.47;;;;;;;-0.37;87.12;100316.16;2006522;81;20332;-83
2020/12/26 01:58:43;;;;;;;4.43;1.81;;;;;;;-0.39;87.24;100317.75;2004309;81;20230;-82
2020/12/26 02:01:52;;;;;;;4.03;1.60;;;;;;;-0.37;87.59;100322.16;2004886;81;20198;-82
2020/12/26 02:04:56;;;;;;;3.96;1.52;;;;;;;-0.35;87.74;100323.13;2006435;81;20286;-83
2020/12/26 02:07:59;;;;;;;2.67;1.48;;;;;;;-0.33;87.90;100324.09;2007325;81;20179;-83
2020/12/26 02:11:07;;;;;;;4.28;1.22;;;;;;;-0.34;87.94;100326.56;2005236;81;20204;-83
2020/12/26 02:14:11;;;;;;;2.76;1.67;;;;;;;-0.31;88.22;100334.38;2005583;81;20194;-83
2020/12/26 02:17:13;;;;;;;2.13;1.56;;;;;;;-0.26;88.51;100332.94;2005279;80;20260;-81
2020/12/26 02:20:15;;;;;;;3.11;1.37;;;;;;;-0.21;88.56;100334.06;2004877;81;20331;-83
2020/12/26 02:23:17;;;;;;;3.54;2.03;;;;;;;-0.21;88.67;100328.06;2005060;81;20289;-82
2020/12/26 02:26:29;;;;;;;3.54;1.91;;;;;;;-0.16;88.89;100324.13;2006640;81;20182;-84
2020/12/26 02:29:33;;;;;;;5.37;1.80;;;;;;;-0.13;88.93;100325.16;2005286;81;20190;-84
2020/12/26 02:32:35;;;;;;;3.60;1.70;;;;;;;-0.15;88.96;100314.00;2009196;81;20316;-83
2020/12/26 02:35:39;;;;;;;6.19;1.66;;;;;;;-0.14;88.91;100308.09;2005430;81;20190;-83
2020/12/26 02:38:43;;;;;;;3.51;1.58;;;;;;;-0.17;88.90;100302.81;2008045;80;20178;-83
2020/12/26 02:41:47;;;;;;;5.29;2.50;;;;;;;-0.12;89.11;100303.94;2005747;81;20174;-83
2020/12/26 02:44:49;;;;;;;4.30;1.78;;;;;;;-0.07;89.01;100306.72;2005951;81;20353;-83
2020/12/26 02:47:51;;;;;;;3.39;1.79;;;;;;;-0.06;89.01;100309.34;2006704;81;20204;-83
2020/12/26 02:50:54;;;;;;;3.47;1.87;;;;;;;-0.04;88.98;100311.97;2006528;81;20240;-82
2020/12/26 02:53:56;;;;;;;3.56;1.72;;;;;;;-0.03;88.88;100306.06;2006774;81;20210;-83
2020/12/26 02:56:58;;;;;;;3.89;2.36;;;;;;;-0.03;88.89;100317.16;2006620;81;20203;-82
2020/12/26 03:00:00;;;;;;;4.39;2.06;;;;;;;-0.01;88.80;100318.13;2006849;81;20279;-83
2020/12/26 03:03:03;;;;;;;4.31;2.07;;;;;;;0.03;88.93;100316.63;2008020;81;20205;-82
2020/12/26 03:06:05;;;;;;;4.41;1.79;;;;;;;0.05;88.83;100317.59;2007124;81;20194;-83
2020/12/26 03:09:07;;;;;;;2.76;1.72;;;;;;;0.05;88.66;100320.13;2005519;81;20194;-82
2020/12/26 03:12:09;;;;;;;4.27;2.23;;;;;;;0.07;88.77;100320.22;2008586;81;20203;-82
2020/12/26 03:15:11;;;;;;;5.84;2.50;;;;;;;0.12;88.92;100317.09;2009912;80;20174;-83
2020/12/26 03:18:13;;;;;;;6.68;1.90;;;;;;;0.15;88.87;100317.25;2008387;81;20240;-83
2020/12/26 03:21:15;;;;;;;3.12;2.13;;;;;;;0.15;88.74;100318.91;2009014;81;20174;-83
2020/12/26 03:24:17;;;;;;;5.08;2.33;;;;;;;0.16;88.80;100318.13;2008095;81;20203;-83
2020/12/26 03:27:19;;;;;;;3.08;1.96;;;;;;;0.21;88.77;100315.03;2007875;81;20331;-83
2020/12/26 03:30:21;;;;;;;4.76;1.99;;;;;;;0.23;88.73;100310.88;2007134;80;20214;-83
2020/12/26 03:33:23;;;;;;;2.90;1.70;;;;;;;0.23;88.70;100305.75;2007982;81;20216;-83
2020/12/26 03:36:25;;;;;;;4.52;1.82;;;;;;;0.23;88.67;100307.44;2007844;81;20208;-83
2020/12/26 03:39:27;;;;;;;2.60;2.21;;;;;;;0.22;88.80;100301.47;2008816;81;20190;-83
2020/12/26 03:42:29;;;;;;;2.42;1.77;;;;;;;0.24;88.85;100302.41;2009284;81;20193;-83
2020/12/26 03:45:31;;;;;;;5.23;1.94;;;;;;;0.28;88.79;100303.44;2007995;81;20374;-83
2020/12/26 03:48:33;;;;;;;4.58;1.88;;;;;;;0.26;88.67;100295.69;2009101;81;20229;-83
2020/12/26 03:51:35;;;;;;;3.68;2.10;;;;;;;0.25;88.59;100309.28;2007204;81;20206;-82
2020/12/26 03:54:37;;;;;;;4.95;2.17;;;;;;;0.28;88.82;100308.53;2007736;81;20186;-83
2020/12/26 03:57:39;;;;;;;3.02;1.58;;;;;;;0.33;88.92;100308.78;2011981;81;20432;-82
2020/12/26 04:00:41;;;;;;;3.89;2.00;;;;;;;0.37;88.93;100313.25;2008263;81;20211;-83
2020/12/26 04:03:43;;;;;;;3.42;1.84;;;;;;;0.36;88.76;100314.94;2011056;81;20231;-83
2020/12/26 04:06:47;;;;;;;4.53;1.86;;;;;;;0.37;88.81;100309.03;2008496;81;20212;-83
2020/12/26 04:09:49;;;;;;;3.58;2.00;;;;;;;0.35;88.84;100304.63;2008454;81;20174;-83
2020/12/26 04:12:51;;;;;;;4.64;2.00;;;;;;;0.34;88.94;100305.41;2008410;81;20174;-83
2020/12/26 04:15:53;;;;;;;4.61;2.20;;;;;;;0.33;88.89;100308.78;2007611;81;20371;-83
2020/12/26 04:18:55;;;;;;;4.91;2.24;;;;;;;0.31;88.97;100303.59;2006400;81;20294;-84
2020/12/26 04:21:59;;;;;;;4.29;2.04;;;;;;;0.33;89.05;100303.66;2006478;81;20186;-83
2020/12/26 04:25:02;;;;;;;3.71;2.04;;;;;;;0.35;89.09;100307.16;2007367;81;20198;-84
2020/12/26 04:28:04;;;;;;;4.34;2.08;;;;;;;0.39;88.96;100306.56;2006534;81;20178;-83
2020/12/26 04:31:07;;;;;;;6.92;2.20;;;;;;;0.39;88.96;100309.97;2008396;81;20339;-84
2020/12/26 04:34:09;;;;;;;5.13;2.29;;;;;;;0.41;89.07;100305.81;2010373;81;20216;-84
2020/12/26 04:37:11;;;;;;;3.99;2.10;;;;;;;0.43;88.89;100305.91;2009867;81;20166;-83
2020/12/26 04:40:14;;;;;;;3.50;2.11;;;;;;;0.42;89.10;100305.03;2008256;81;20225;-83
2020/12/26 04:43:17;;;;;;;4.88;2.86;;;;;;;0.43;89.08;100306.78;2008670;81;20373;-83
2020/12/26 04:46:27;;;;;;;3.11;2.02;;;;;;;0.41;89.04;100312.59;2006237;81;20190;-83
2020/12/26 04:49:30;;;;;;;4.57;2.64;;;;;;;0.41;89.11;100310.94;2009630;81;20178;-84
2020/12/26 04:52:46;;;;;;;4.63;2.40;;;;;;;0.40;89.06;100310.84;2013449;80;20576;-81
2020/12/26 04:55:52;;;;;;;3.29;2.29;;;;;;;0.37;88.90;100305.59;2005780;80;20648;-82
2020/12/26 04:58:59;;;;;;;6.41;2.84;;;;;;;0.38;88.85;100313.34;2004388;81;20302;-83
2020/12/26 05:02:02;;;;;;;5.39;2.47;;;;;;;0.39;89.01;100307.44;2005856;80;20190;-83
2020/12/26 05:05:04;;;;;;;3.98;2.44;;;;;;;0.37;88.78;100303.91;2005436;81;20233;-82
2020/12/26 05:08:14;;;;;;;5.91;2.51;;;;;;;0.43;89.01;100305.91;2005905;81;20336;-81
2020/12/26 05:11:20;;;;;;;4.56;2.76;;;;;;;0.43;88.86;100304.22;2004884;81;20182;-82
2020/12/26 05:14:26;;;;;;;4.03;2.44;;;;;;;0.43;89.02;100305.91;2007811;81;20276;-82
2020/12/26 05:17:29;;;;;;;3.36;2.34;;;;;;;0.44;89.12;100305.09;2004989;81;20190;-82
2020/12/26 05:20:31;;;;;;;4.03;2.26;;;;;;;0.44;89.16;100298.31;2005751;81;20208;-82
2020/12/26 05:23:38;;;;;;;4.40;2.27;;;;;;;0.45;89.05;100302.63;2007462;81;20183;-82
2020/12/26 05:26:42;;;;;;;5.31;2.70;;;;;;;0.44;88.92;100303.41;2005084;81;20186;-81
2020/12/26 05:29:45;;;;;;;9.47;2.32;;;;;;;0.44;89.00;100308.53;2004874;81;20186;-84
2020/12/26 05:32:49;;;;;;;4.70;2.90;;;;;;;0.43;88.95;100305.91;2005135;81;20178;-82
2020/12/26 05:36:01;;;;;;;6.63;2.61;;;;;;;0.44;88.90;100295.75;2007157;81;20375;-83
2020/12/26 05:39:04;;;;;;;4.01;2.42;;;;;;;0.42;88.71;100309.25;2003601;80;20215;-82
2020/12/26 05:42:07;;;;;;;3.88;2.46;;;;;;;0.41;88.69;100304.94;2003518;81;20280;-81
2020/12/26 05:45:09;;;;;;;4.86;2.66;;;;;;;0.37;88.67;100308.16;2008132;80;20343;-82
2020/12/26 05:48:22;;;;;;;4.52;2.92;;;;;;;0.35;88.66;100299.50;2003604;81;20232;-82
2020/12/26 05:51:28;;;;;;;8.41;3.26;;;;;;;0.32;88.51;100296.81;2004023;81;20513;-82
2020/12/26 05:54:31;;;;;;;3.92;2.61;;;;;;;0.28;88.50;100295.78;2001816;81;20344;-82
2020/12/26 05:57:34;;;;;;;5.70;3.41;;;;;;;0.25;88.44;100304.16;2003095;81;20556;-83
2020/12/26 06:00:39;;;;;;;3.99;2.84;;;;;;;0.24;88.40;100301.53;2002757;81;20186;-82
2020/12/26 06:03:42;;;;;;;4.91;3.19;;;;;;;0.22;88.22;100303.13;2003412;81;20262;-82
2020/12/26 06:06:45;;;;;;;6.70;3.06;;;;;;;0.21;88.02;100307.38;2004795;81;20179;-83
2020/12/26 06:09:50;;;;;;;5.14;3.08;;;;;;;0.15;87.82;100308.72;2003801;81;20200;-81
2020/12/26 06:12:53;;;;;;;4.87;3.03;;;;;;;0.10;87.82;100312.72;2002785;81;20214;-82
2020/12/26 06:15:59;;;;;;;5.12;3.07;;;;;;;0.06;87.85;100306.56;2002193;81;20190;-82
2020/12/26 06:19:03;;;;;;;5.17;2.74;;;;;;;0.06;87.87;100308.25;2003949;81;20868;-81
2020/12/26 06:22:05;;;;;;;7.00;3.42;;;;;;;0.08;87.93;100311.75;2002432;81;20174;-81
2020/12/26 06:25:10;;;;;;;3.41;2.59;;;;;;;0.10;87.93;100303.38;2002559;81;20208;-82
2020/12/26 06:28:32;;;;;;;4.47;2.78;;;;;;;0.16;88.06;100306.22;2003529;81;20224;-82
2020/12/26 06:31:34;;;;;;;5.20;3.03;;;;;;;0.17;88.22;100307.09;2003539;81;20215;-82
2020/12/26 06:34:41;;;;;;;7.27;3.74;;;;;;;0.18;88.42;100307.22;2002321;81;20212;-82
2020/12/26 06:37:44;;;;;;;5.16;3.13;;;;;;;0.20;88.48;100302.19;2002721;81;20209;-82
2020/12/26 06:40:50;;;;;;;4.31;3.20;;;;;;;0.19;88.39;100305.53;2003392;81;20216;-82
2020/12/26 06:43:53;;;;;;;7.89;3.62;;;;;;;0.18;88.45;100293.53;2002965;81;20213;-82
2020/12/26 06:46:55;;;;;;;4.39;2.93;;;;;;;0.16;88.27;100288.34;2001786;81;20194;-78
2020/12/26 06:50:19;;;;;;;5.84;2.92;;;;;;;0.19;88.29;100287.66;2006127;80;20182;-82
2020/12/26 06:53:35;;;;;;;6.06;3.40;;;;;;;0.19;88.17;100288.53;2005580;81;20325;-82
2020/12/26 06:56:37;;;;;;;3.41;2.67;;;;;;;0.18;88.12;100291.88;2006702;81;20398;-82
2020/12/26 06:59:38;;;;;;;4.41;3.30;;;;;;;0.24;88.20;100291.31;2006252;81;20171;-81
2020/12/26 07:02:40;;;;;;;4.24;2.87;;;;;;;0.23;87.97;100294.66;2005531;81;20281;-80
2020/12/26 07:05:43;;;;;;;6.10;2.97;;;;;;;0.24;87.90;100289.63;2004887;81;20226;-82
2020/12/26 07:08:51;;;;;;;5.39;2.97;;;;;;;0.21;87.70;100281.81;2003617;81;20198;-81
2020/12/26 07:11:54;;;;;;;5.39;3.13;;;;;;;0.12;87.49;100286.44;2004283;81;20194;-84
2020/12/26 07:14:56;;;;;;;6.43;3.24;;;;;;;0.10;87.46;100284.63;2007022;81;20194;-81
2020/12/26 07:18:24;;;;;;;4.69;3.03;;;;;;;0.10;87.33;100280.38;2007311;81;20198;-80
2020/12/26 07:21:29;;;;;;;5.47;2.73;;;;;;;0.07;87.29;100280.25;1997205;81;20288;-78
2020/12/26 07:24:34;;;;;;;3.81;2.87;;;;;;;-0.05;86.89;100290.69;1995276;81;21257;-79
2020/12/26 07:27:37;;;;;;;5.48;2.78;;;;;;;-0.15;86.90;100291.00;1994709;81;20206;-79
2020/12/26 07:30:39;;;;;;;7.26;3.47;;;;;;;-0.10;86.94;100291.25;1995759;81;20186;-81
2020/12/26 07:33:40;;;;;;;9.14;3.94;;;;;;;-0.13;86.78;100294.53;1994471;81;20186;-79
2020/12/26 07:36:42;;;;;;;3.39;3.09;;;;;;;-0.07;87.02;100306.72;1994747;81;20190;-77
2020/12/26 07:39:45;;;;;;;5.54;3.64;;;;;;;-0.04;87.21;100311.97;1995781;81;20628;-79
2020/12/26 07:42:47;;;;;;;6.77;3.86;;;;;;;0.07;87.55;100308.31;1995853;81;20186;-79
2020/12/26 07:45:55;;;;;;;6.36;3.74;;;;;;;0.10;87.63;100312.72;1995669;81;20194;-83
2020/12/26 07:48:56;;;;;;;8.97;4.39;;;;;;;0.21;87.94;100317.59;1996764;81;20179;-80
2020/12/26 07:52:05;;;;;;;5.32;4.52;;;;;;;0.26;87.89;100313.56;1994634;81;21014;-80
2020/12/26 07:55:07;;;;;;;8.01;4.27;;;;;;;0.32;87.97;100310.44;1995988;81;20183;-82
2020/12/26 07:58:12;;;;;;;6.81;4.83;;;;;;;0.39;88.07;100309.09;1999787;81;20214;-81
2020/12/26 08:01:24;;;;;;;12.02;7.34;;;;;;;0.48;88.25;100307.88;1999457;81;20182;-83
2020/12/26 08:04:25;;;;;;;12.51;8.59;;;;;;;0.47;88.19;100307.78;2000074;81;21007;-81
2020/12/26 08:07:32;;;;;;;11.00;6.38;;;;;;;0.54;88.41;100305.66;2001717;81;20216;-86
2020/12/26 08:10:34;;;;;;;12.14;6.10;;;;;;;0.59;88.38;100310.97;2005845;81;20341;-85
2020/12/26 08:13:39;;;;;;;8.99;6.30;;;;;;;0.57;88.39;100322.81;2007532;81;20231;-82
2020/12/26 08:16:42;;;;;;;10.11;6.39;;;;;;;0.63;88.60;100317.13;2005452;81;20174;-83
2020/12/26 08:19:44;;;;;;;8.44;6.12;;;;;;;0.66;88.55;100323.25;2006810;81;20387;-81
2020/12/26 08:22:45;;;;;;;8.24;5.93;;;;;;;0.72;88.64;100320.09;2007626;81;20196;-84
2020/12/26 08:25:47;;;;;;;8.94;5.90;;;;;;;0.77;88.68;100323.78;2008375;81;20326;-83
2020/12/26 08:28:50;;;;;;;12.23;6.39;;;;;;;0.80;88.73;100327.38;2008658;81;20333;-83
2020/12/26 08:32:00;;;;;;;8.46;6.29;;;;;;;0.83;88.75;100324.97;2011985;80;20178;-84
2020/12/26 08:35:06;;;;;;;8.34;7.13;;;;;;;0.87;88.68;100325.97;2007341;81;20231;-84
2020/12/26 08:38:25;;;;;;;11.19;6.59;;;;;;;0.89;88.80;100335.47;2012602;80;20350;-83
2020/12/26 08:41:27;;;;;;;11.09;7.46;;;;;;;0.92;88.63;100342.44;2007434;81;20207;-84
2020/12/26 08:44:29;;;;;;;9.84;6.24;;;;;;;0.95;88.75;100355.38;2011620;81;20215;-86
2020/12/26 08:47:32;;;;;;;8.44;5.86;;;;;;;0.98;88.74;100352.09;2007785;81;20191;-84
2020/12/26 08:50:34;;;;;;;11.62;6.52;;;;;;;1.00;88.48;100345.38;2010417;81;20383;-83
2020/12/26 08:53:35;;;;;;;11.19;6.74;;;;;;;1.03;88.61;100346.38;2008105;81;20174;-83
2020/12/26 08:56:38;;;;;;;12.10;6.57;;;;;;;1.10;88.73;100352.69;2008235;81;20212;-84
2020/12/26 08:59:39;;;;;;;12.39;8.14;;;;;;;1.16;88.81;100345.31;2007437;81;20333;-83
2020/12/26 09:02:46;;;;;;;7.36;5.82;;;;;;;1.20;88.74;100350.63;2010864;80;20326;-83
2020/12/26 09:05:48;;;;;;;9.20;5.97;;;;;;;1.24;88.62;100350.78;2011469;81;20356;-83
2020/12/26 09:08:49;;;;;;;8.82;6.07;;;;;;;1.26;88.52;100355.19;2009905;81;20200;-84
2020/12/26 09:12:03;;;;;;;7.96;6.04;;;;;;;1.32;88.44;100357.16;2008486;81;20343;-83
2020/12/26 09:15:05;;;;;;;10.82;6.55;;;;;;;1.35;88.45;100360.72;2008996;81;20339;-83
2020/12/26 09:21:43;;;;;;;9.10;6.30;;;;;;;1.42;88.31;100369.56;2019415;70;20445;-85
2020/12/26 09:24:45;;;;;;;8.45;5.65;;;;;;;1.45;88.27;100370.63;2009170;81;20329;-84
2020/12/26 09:27:47;;;;;;;7.51;5.68;;;;;;;1.47;88.21;100365.56;2008265;81;20317;-84
2020/12/26 09:37:57;;;;;;;7.99;5.65;;;;;;;1.57;87.87;100369.41;2015392;70;20439;-85
2020/12/26 09:44:17;;;;;;;9.59;5.75;;;;;;;1.61;87.79;100361.06;2017729;70;20605;-82
2020/12/26 09:47:20;;;;;;;7.56;5.22;;;;;;;1.68;87.89;100370.81;2007495;81;20347;-85
2020/12/26 09:50:25;;;;;;;9.40;5.74;;;;;;;1.69;87.95;100370.00;2007650;80;20202;-83
2020/12/26 09:53:27;;;;;;;9.71;6.00;;;;;;;1.68;87.78;100381.06;2013106;80;20407;-84
2020/12/26 09:56:32;;;;;;;7.74;5.10;;;;;;;1.69;87.71;100385.38;2007667;81;20460;-84
2020/12/26 09:59:34;;;;;;;8.15;6.00;;;;;;;1.68;87.62;100379.38;2006982;81;20383;-83
2020/12/26 10:02:37;;;;;;;8.03;5.60;;;;;;;1.70;87.71;100374.31;2009240;81;20309;-84
2020/12/26 10:05:40;;;;;;;7.26;4.54;;;;;;;1.71;87.59;100376.94;2008754;80;20182;-86
2020/12/26 10:08:43;;;;;;;6.88;5.18;;;;;;;1.73;87.59;100377.00;2010483;81;20373;-81
2020/12/26 10:11:45;;;;;;;7.80;5.01;;;;;;;1.76;87.54;100372.91;2008198;81;20346;-84
2020/12/26 10:14:50;;;;;;;7.72;4.94;;;;;;;1.78;87.59;100372.97;2007228;81;20345;-83
2020/12/26 10:17:52;;;;;;;9.06;5.29;;;;;;;1.80;87.59;100367.16;2008646;81;20471;-84
2020/12/26 10:20:55;;;;;;;8.46;5.11;;;;;;;1.83;87.50;100358.72;2009771;81;20527;-83
2020/12/26 10:23:57;;;;;;;8.94;4.71;;;;;;;1.87;87.37;100360.59;2007832;81;20362;-83
2020/12/26 10:27:00;;;;;;;7.55;4.57;;;;;;;1.87;87.17;100363.16;2009474;81;20318;-84
2020/12/26 10:30:03;;;;;;;6.21;4.47;;;;;;;1.89;87.13;100353.00;2009762;80;20368;-84
2020/12/26 10:33:07;;;;;;;5.54;4.30;;;;;;;1.93;87.12;100357.44;2010646;81;20355;-83
2020/12/26 10:36:09;;;;;;;7.34;4.16;;;;;;;1.97;87.07;100352.53;2006477;81;20341;-83
2020/12/26 10:39:11;;;;;;;5.55;4.10;;;;;;;2.00;86.92;100352.69;2006110;81;20391;-82
2020/12/26 10:42:13;;;;;;;6.44;4.13;;;;;;;2.00;86.47;100336.44;2005534;81;20371;-81
2020/12/26 10:45:15;;;;;;;7.80;4.69;;;;;;;2.03;86.49;100340.00;2006923;81;20333;-82
2020/12/26 10:48:17;;;;;;;5.68;4.21;;;;;;;2.05;86.60;100337.50;2009310;81;20187;-82
2020/12/26 10:51:19;;;;;;;6.81;3.97;;;;;;;2.08;86.60;100333.41;2008193;81;20371;-83
2020/12/26 10:54:21;;;;;;;5.34;3.78;;;;;;;2.11;86.45;100333.53;2007161;81;20321;-82
2020/12/26 10:57:24;;;;;;;6.24;3.94;;;;;;;2.16;86.44;100320.06;2009369;81;20415;-82
2020/12/26 11:00:27;;;;;;;4.30;3.31;;;;;;;2.17;86.16;100319.25;2010480;81;20343;-82
2020/12/26 11:03:31;;;;;;;7.76;4.10;;;;;;;2.17;85.79;100317.56;2010972;81;20333;-82
2020/12/26 11:06:33;;;;;;;4.63;3.42;;;;;;;2.15;85.65;100314.03;2009787;80;20349;-83
2020/12/26 11:09:38;;;;;;;3.76;3.40;;;;;;;2.15;85.36;100308.03;2010054;81;20318;-83
2020/12/26 11:12:40;;;;;;;4.65;3.08;;;;;;;2.17;85.21;100304.75;2006241;81;20318;-83
2020/12/26 11:15:42;;;;;;;3.94;3.10;;;;;;;2.16;85.07;100297.88;2009817;81;20373;-83
2020/12/26 11:18:45;;;;;;;4.47;3.30;;;;;;;2.11;84.86;100287.41;2007496;81;20347;-83
2020/12/26 11:21:52;;;;;;;5.93;3.29;;;;;;;2.12;85.19;100296.84;2006555;81;20329;-82
2020/12/26 11:24:56;;;;;;;4.00;3.06;;;;;;;2.14;85.25;100299.47;2010501;81;20329;-82
2020/12/26 11:28:02;;;;;;;5.44;3.49;;;;;;;2.13;85.21;100300.28;2009332;81;20428;-83
2020/12/26 11:31:07;;;;;;;4.90;3.34;;;;;;;2.13;85.24;100292.59;2010396;81;20321;-83
2020/12/26 11:34:11;;;;;;;4.80;2.92;;;;;;;2.16;85.43;100297.00;2009317;81;20353;-82
2020/12/26 11:37:13;;;;;;;5.41;3.54;;;;;;;2.17;85.43;100294.53;2009234;81;20435;-83
2020/12/26 11:40:15;;;;;;;5.96;3.90;;;;;;;2.18;85.52;100295.41;2009283;81;20341;-82
2020/12/26 11:43:20;;;;;;;5.86;3.67;;;;;;;2.15;85.38;100290.09;2007248;81;20359;-82
2020/12/26 11:46:32;;;;;;;4.49;3.17;;;;;;;2.17;85.72;100279.16;2008883;81;20365;-82
2020/12/26 11:49:34;;;;;;;6.65;3.36;;;;;;;2.22;85.95;100279.34;2006896;81;20325;-82
2020/12/26 11:52:36;;;;;;;5.82;3.10;;;;;;;2.20;85.69;100274.16;2005001;81;20431;-84
2020/12/26 11:55:38;;;;;;;4.54;3.60;;;;;;;2.19;85.73;100276.66;2008291;80;20322;-83
2020/12/26 11:58:41;;;;;;;5.44;3.44;;;;;;;2.15;85.77;100272.19;2011027;81;20206;-83
2020/12/26 12:01:44;;;;;;;8.00;4.30;;;;;;;2.13;86.02;100265.31;2010798;81;20350;-83
2020/12/26 12:04:46;;;;;;;4.93;3.96;;;;;;;2.19;86.09;100274.97;2009750;81;20325;-85
2020/12/26 12:07:48;;;;;;;5.85;3.83;;;;;;;2.21;86.13;100265.66;2014987;81;20306;-85
2020/12/26 12:10:50;;;;;;;4.44;3.86;;;;;;;2.25;86.17;100267.53;2012569;81;20321;-84
2020/12/26 12:13:52;;;;;;;5.01;3.55;;;;;;;2.31;86.17;100262.66;2008717;81;20348;-86
2020/12/26 12:16:54;;;;;;;7.43;3.42;;;;;;;2.34;86.14;100257.69;2006462;81;20379;-79
2020/12/26 12:19:56;;;;;;;5.47;3.71;;;;;;;2.31;85.87;100247.28;2006913;81;20321;-84
2020/12/26 12:22:58;;;;;;;4.99;3.56;;;;;;;2.28;85.81;100247.16;2007694;81;20318;-85
2020/12/26 12:26:00;;;;;;;4.46;3.13;;;;;;;2.30;85.91;100253.22;2009342;80;20337;-83
2020/12/26 12:29:02;;;;;;;5.29;3.28;;;;;;;2.30;85.70;100239.53;2011733;80;20371;-85
2020/12/26 12:32:04;;;;;;;6.86;3.30;;;;;;;2.29;85.56;100236.09;2009676;81;20313;-87
2020/12/26 12:35:05;;;;;;;4.93;2.84;;;;;;;2.31;85.59;100231.91;2011618;81;20321;-84
2020/12/26 12:38:07;;;;;;;5.68;3.25;;;;;;;2.29;85.48;100219.84;2012342;81;20321;-85
2020/12/26 12:41:09;;;;;;;5.13;3.40;;;;;;;2.33;85.77;100225.16;2009816;81;20293;-84
2020/12/26 12:44:11;;;;;;;3.75;2.59;;;;;;;2.38;85.78;100212.56;2010617;80;20330;-85
2020/12/26 12:47:12;;;;;;;8.20;3.79;;;;;;;2.39;85.67;100219.44;2008998;81;20346;-85
2020/12/26 12:50:14;;;;;;;4.59;2.90;;;;;;;2.40;85.63;100224.63;2009533;81;20309;-85
2020/12/26 12:53:16;;;;;;;5.59;3.28;;;;;;;2.43;85.55;100227.28;2012392;81;20427;-86
2020/12/26 12:56:19;;;;;;;4.84;2.90;;;;;;;2.40;85.53;100219.50;2013868;81;20412;-84
2020/12/26 12:59:21;;;;;;;5.25;2.88;;;;;;;2.41;85.44;100215.25;2013503;81;20424;-84
2020/12/26 13:02:23;;;;;;;4.07;3.00;;;;;;;2.47;85.69;100212.03;2009044;81;20378;-85
2020/12/26 13:05:24;;;;;;;5.22;3.26;;;;;;;2.51;85.52;100209.66;2011213;81;20322;-86
2020/12/26 13:08:26;;;;;;;3.40;2.50;;;;;;;2.53;85.17;100202.94;2009681;81;20266;-86
2020/12/26 13:11:28;;;;;;;5.79;3.53;;;;;;;2.57;85.25;100197.13;2011348;81;20329;-85
2020/12/26 13:14:29;;;;;;;3.84;3.01;;;;;;;2.56;84.95;100192.81;2014406;80;20325;-87
2020/12/26 13:17:31;;;;;;;3.67;2.76;;;;;;;2.58;84.96;100186.03;2008802;81;20343;-86
2020/12/26 13:20:33;;;;;;;5.13;2.74;;;;;;;2.61;84.93;100177.59;2011830;81;20313;-87
2020/12/26 13:23:34;;;;;;;4.49;2.81;;;;;;;2.58;84.82;100175.78;2010139;81;20403;-86
2020/12/26 13:26:37;;;;;;;3.85;2.53;;;;;;;2.56;84.50;100176.53;2009839;81;20541;-86
2020/12/26 13:29:38;;;;;;;4.57;3.63;;;;;;;2.55;84.35;100173.09;2008367;81;20325;-87
2020/12/26 13:32:40;;;;;;;4.25;2.78;;;;;;;2.57;84.44;100161.22;2010196;81;20313;-87
2020/12/26 13:35:42;;;;;;;4.46;2.56;;;;;;;2.59;84.41;100161.28;2010158;80;20377;-85
2020/12/26 13:38:44;;;;;;;3.92;2.81;;;;;;;2.64;84.53;100147.81;2009785;81;20339;-85
2020/12/26 13:41:45;;;;;;;3.86;2.72;;;;;;;2.63;84.17;100137.50;2013832;81;20354;-86
2020/12/26 13:44:47;;;;;;;2.78;2.44;;;;;;;2.61;83.82;100124.63;2009320;81;20306;-86
2020/12/26 13:47:48;;;;;;;2.33;2.03;;;;;;;2.62;83.91;100121.25;2012888;81;20317;-85
2020/12/26 13:50:50;;;;;;;4.13;2.11;;;;;;;2.67;83.94;100117.16;2010156;81;20337;-85
2020/12/26 13:53:51;;;;;;;3.14;1.92;;;;;;;2.69;83.70;100127.47;2009895;81;20318;-81
2020/12/26 13:56:53;;;;;;;2.96;2.34;;;;;;;2.68;83.35;100115.47;2012103;81;20283;-85
2020/12/26 13:59:55;;;;;;;3.30;2.20;;;;;;;2.67;83.23;100118.88;2011554;81;20317;-87
2020/12/26 14:02:56;;;;;;;2.00;1.80;;;;;;;2.69;83.38;100119.78;2008498;81;20505;-87
2020/12/26 14:05:58;;;;;;;2.42;1.92;;;;;;;2.69;83.36;100114.66;2011742;81;20341;-85
2020/12/26 14:09:06;;;;;;;3.30;2.03;;;;;;;2.67;83.17;100104.34;2008208;81;20339;-84
2020/12/26 14:12:07;;;;;;;2.66;2.15;;;;;;;2.66;82.76;100104.28;2007250;81;20307;-87
2020/12/26 14:15:09;;;;;;;3.83;1.58;;;;;;;2.64;82.54;100098.25;2016122;81;20348;-86
2020/12/26 14:18:10;;;;;;;3.35;1.51;;;;;;;2.61;82.25;100087.88;2011806;81;20337;-86
2020/12/26 14:21:12;;;;;;;2.21;1.74;;;;;;;2.59;82.18;100090.38;2008459;81;20379;-85
2020/12/26 14:24:17;;;;;;;2.91;1.58;;;;;;;2.56;81.99;100086.84;2013280;81;20317;-85
2020/12/26 14:27:19;;;;;;;2.06;1.40;;;;;;;2.51;81.64;100086.63;2012011;81;20298;-85
2020/12/26 14:30:21;;;;;;;1.64;1.39;;;;;;;2.47;81.51;100091.59;2007899;81;20278;-84
2020/12/26 14:33:24;;;;;;;4.29;1.41;;;;;;;2.46;81.14;100084.72;2033285;70;20304;-87
2020/12/26 14:36:26;;;;;;;1.81;1.30;;;;;;;2.46;81.14;100089.84;1999030;81;20296;-85